Tokuyama21century — JK5158 — position and weather

sailwx.info

Track history (hours):
 
Tides and Currents Weather Stations Pressure Air Temp Water Temp Dewpoint Dewpoint Depression Visibility Wind Speed Wind Dir Waves Ship Positions

Tokuyama21century

Last reported at 2018-Feb-21 18:58 UTC. Time now 2018-Feb-21 19:15 UTC.
Position N 34°39' E 135°27'.

Length 75 m; draft 6 m.

Type: Cargo ship. MMSI: 431400048.

Date/timePositionNaut miles runAvg speedWind from/ knotsBaromVisibWave heightAir tempDewpointWater temp
2018-Feb-21 18:58N 34°39' E 135°27'0 0.0
2018-Feb-21 18:28N 34°39' E 135°27'0 0.0
2018-Feb-21 17:58N 34°39' E 135°27'0 0.0
2018-Feb-21 17:28N 34°39' E 135°27'0 0.0
2018-Feb-21 16:58N 34°39' E 135°27'0 0.0
2018-Feb-21 16:28N 34°39' E 135°27'0 0.0
2018-Feb-21 15:58N 34°39' E 135°27'0 0.0
2018-Feb-21 15:28N 34°39' E 135°27'0 0.0
2018-Feb-21 14:58N 34°39' E 135°27'0 0.0
2018-Feb-21 14:28N 34°39' E 135°27'0 0.0
2018-Feb-21 13:58N 34°39' E 135°27'0 0.0
2018-Feb-21 13:28N 34°39' E 135°27'0 0.0
2018-Feb-21 12:58N 34°39' E 135°27'0 0.0
2018-Feb-21 12:28N 34°39' E 135°27'0 0.0
2018-Feb-21 11:58N 34°39' E 135°27'0 0.0
2018-Feb-21 11:28N 34°39' E 135°27'0 0.0
2018-Feb-21 10:58N 34°39' E 135°27'0 0.0
2018-Feb-21 10:28N 34°39' E 135°27'0 0.0
2018-Feb-21 09:58N 34°39' E 135°27'0 0.0
2018-Feb-21 09:28N 34°39' E 135°27'0 0.0
2018-Feb-21 08:59N 34°39' E 135°27'1 2.9
2018-Feb-21 08:30N 34°39' E 135°25'5 9.9
2018-Feb-21 08:00N 34°36' E 135°20'510.9
2018-Feb-21 07:31N 34°35' E 135°13'611.0
2018-Feb-21 07:00N 34°34' E 135°07'611.8
2018-Feb-21 06:30N 34°37' E 135°00'611.9
2018-Feb-21 06:00N 34°35' E 134°54'510.4
2018-Feb-21 05:30N 34°32' E 134°48'510.2
2018-Feb-21 05:00N 34°30' E 134°43'510.3
2018-Feb-21 04:30N 34°28' E 134°37'510.3
2018-Feb-21 04:00N 34°27' E 134°31'510.3
2018-Feb-21 03:30N 34°25' E 134°25'18 1.0
2018-Feb-20 09:17N 34°27' E 134°03'410.6
2018-Feb-20 08:53N 34°26' E 134°08'410.2
2018-Feb-20 08:28N 34°24' E 134°13'510.1
2018-Feb-20 08:00N 34°25' E 134°19'510.8
2018-Feb-20 07:30N 34°26' E 134°25'611.1
2018-Feb-20 07:00N 34°28' E 134°31'611.2
2018-Feb-20 06:30N 34°31' E 134°38'611.1
2018-Feb-20 06:00N 34°33' E 134°44'611.7
2018-Feb-20 05:30N 34°35' E 134°51'611.7
2018-Feb-20 05:00N 34°37' E 134°57'510.4
2018-Feb-20 04:30N 34°36' E 135°03'611.4
2018-Feb-20 04:00N 34°37' E 135°10'611.4
2018-Feb-20 03:30N 34°38' E 135°17'510.9
2018-Feb-20 03:00N 34°38' E 135°24'2 4.8
2018-Feb-20 02:30N 34°39' E 135°27'0 0.0
2018-Feb-20 02:00N 34°39' E 135°27'0 0.0
2018-Feb-20 01:30N 34°39' E 135°27'0 0.0
2018-Feb-20 01:00N 34°39' E 135°27'0 0.0
2018-Feb-20 00:30N 34°39' E 135°27'0 0.0
2018-Feb-20 00:00N 34°39' E 135°27'0 0.0
2018-Feb-19 23:30N 34°39' E 135°27'0 0.0
2018-Feb-19 23:00N 34°39' E 135°27'0 0.0
2018-Feb-19 22:28N 34°39' E 135°27'0 0.0
2018-Feb-19 21:58N 34°39' E 135°27'0 0.0
2018-Feb-19 21:25N 34°39' E 135°27'0 0.0
2018-Feb-19 20:58N 34°39' E 135°27'0 0.0
2018-Feb-19 20:28N 34°39' E 135°27'0 0.0
2018-Feb-19 19:58N 34°39' E 135°27'0 0.0
2018-Feb-19 19:28N 34°39' E 135°27'0 0.0
2018-Feb-19 18:58N 34°39' E 135°27'0 0.0
2018-Feb-19 18:28N 34°39' E 135°27'0 0.0
2018-Feb-19 17:58N 34°39' E 135°27'0 0.0
2018-Feb-19 17:28N 34°39' E 135°27'0 0.0
2018-Feb-19 16:58N 34°39' E 135°27'0 0.0
2018-Feb-19 16:28N 34°39' E 135°27'0 0.0
2018-Feb-19 15:58N 34°39' E 135°27'0 0.0
2018-Feb-19 15:28N 34°39' E 135°27'0 0.0
2018-Feb-19 14:58N 34°39' E 135°27'0 0.0
2018-Feb-19 14:28N 34°39' E 135°27'0 0.0
2018-Feb-19 13:58N 34°39' E 135°27'0 0.0
2018-Feb-19 13:28N 34°39' E 135°27'0 0.0
2018-Feb-19 12:58N 34°39' E 135°27'0 0.0
2018-Feb-19 12:28N 34°39' E 135°27'0 0.0
2018-Feb-19 11:58N 34°39' E 135°27'0 0.0
2018-Feb-19 11:28N 34°39' E 135°27'0 0.0
2018-Feb-19 10:58N 34°39' E 135°27'0 0.0
2018-Feb-19 10:28N 34°39' E 135°27'0 0.0
2018-Feb-19 09:58N 34°39' E 135°27'0 0.0
2018-Feb-19 09:28N 34°39' E 135°27'0 0.0
2018-Feb-19 08:58N 34°39' E 135°27'0 0.0
2018-Feb-19 08:25N 34°39' E 135°27'0 0.0
2018-Feb-19 07:58N 34°39' E 135°27'0 0.0
2018-Feb-19 07:28N 34°39' E 135°27'0 0.0
2018-Feb-19 06:58N 34°39' E 135°27'0 0.0
2018-Feb-19 06:28N 34°39' E 135°27'0 0.0
2018-Feb-19 05:58N 34°39' E 135°27'0 0.0
2018-Feb-19 05:28N 34°39' E 135°27'0 0.0
2018-Feb-19 04:58N 34°39' E 135°27'0 0.0
2018-Feb-19 04:28N 34°39' E 135°27'3 6.0
2018-Feb-19 04:00N 34°38' E 135°23'4 7.5
2018-Feb-19 03:28N 34°36' E 135°19'0 0.0
2018-Feb-19 02:58N 34°36' E 135°19'0 0.0
2018-Feb-19 02:28N 34°36' E 135°19'3 5.9
2018-Feb-19 02:00N 34°34' E 135°20'510.6
2018-Feb-19 01:30N 34°28' E 135°22'0 0.2
2018-Feb-19 01:00N 34°28' E 135°22'0 0.0
2018-Feb-19 00:30N 34°28' E 135°22'0 0.0
2018-Feb-19 00:01N 34°28' E 135°22'0 0.0
2018-Feb-18 23:31N 34°28' E 135°22'0 0.0
2018-Feb-18 22:55N 34°28' E 135°22'0 0.0
2018-Feb-18 22:31N 34°28' E 135°22'0 0.0
2018-Feb-18 22:01N 34°28' E 135°22'0 0.0
2018-Feb-18 21:28N 34°28' E 135°22'0 0.0
2018-Feb-18 20:58N 34°28' E 135°22'0 0.0
2018-Feb-18 20:31N 34°28' E 135°22'0 0.0
2018-Feb-18 20:00N 34°28' E 135°22'0 0.0
2018-Feb-18 19:31N 34°28' E 135°22'0 0.0
2018-Feb-18 19:01N 34°28' E 135°22'0 0.0
2018-Feb-18 18:31N 34°28' E 135°22'0 0.0
2018-Feb-18 18:01N 34°28' E 135°22'0 0.0
2018-Feb-18 17:27N 34°28' E 135°22'0 0.0
2018-Feb-18 17:01N 34°28' E 135°22'0 0.0
2018-Feb-18 16:30N 34°28' E 135°22'0 0.0
2018-Feb-18 16:01N 34°28' E 135°22'0 0.0
2018-Feb-18 15:31N 34°28' E 135°22'0 0.0
2018-Feb-18 15:01N 34°28' E 135°22'0 0.0
2018-Feb-18 14:31N 34°28' E 135°22'0 0.0
2018-Feb-18 14:01N 34°28' E 135°22'0 0.0
2018-Feb-18 13:31N 34°28' E 135°22'0 0.0
2018-Feb-18 13:01N 34°28' E 135°22'0 0.0
2018-Feb-18 12:30N 34°28' E 135°22'0 0.0
2018-Feb-18 12:00N 34°28' E 135°22'0 0.0
2018-Feb-18 11:31N 34°28' E 135°22'0 0.0
2018-Feb-18 11:01N 34°28' E 135°22'0 0.0
2018-Feb-18 10:31N 34°28' E 135°22'0 0.0
2018-Feb-18 10:00N 34°28' E 135°22'0 0.0
2018-Feb-18 09:31N 34°28' E 135°22'0 0.0
2018-Feb-18 09:00N 34°28' E 135°22'0 0.0
2018-Feb-18 08:31N 34°28' E 135°22'0 0.0
2018-Feb-18 08:00N 34°28' E 135°22'0 0.0
2018-Feb-18 07:30N 34°28' E 135°22'0 0.0
2018-Feb-18 07:01N 34°28' E 135°22'0 0.0
2018-Feb-18 06:31N 34°28' E 135°22'0 0.0
2018-Feb-18 05:57N 34°28' E 135°22'0 0.0
2018-Feb-18 05:30N 34°28' E 135°22'0 0.0
2018-Feb-18 05:00N 34°28' E 135°22'0 0.0
2018-Feb-18 04:30N 34°28' E 135°22'2 3.8
2018-Feb-18 04:00N 34°30' E 135°21'510.4
2018-Feb-18 03:30N 34°31' E 135°15'510.8
2018-Feb-18 03:01N 34°33' E 135°08'510.5
2018-Feb-18 02:30N 34°36' E 135°03'4 8.8
2018-Feb-18 02:00N 34°36' E 134°58'5 9.0
2018-Feb-18 01:30N 34°34' E 134°53'4 7.8
2018-Feb-18 01:00N 34°33' E 134°48'5 9.1
2018-Feb-18 00:30N 34°31' E 134°43'5 9.6
2018-Feb-18 00:00N 34°30' E 134°38'510.2
2018-Feb-17 23:30N 34°28' E 134°32'510.3
2018-Feb-17 23:00N 34°26' E 134°26'6 0.5
2018-Feb-17 08:57N 34°22' E 134°20'510.5
2018-Feb-17 08:30N 34°20' E 134°25'510.7
2018-Feb-17 08:00N 34°18' E 134°31'5 9.9
2018-Feb-17 07:30N 34°16' E 134°37'4 8.2
2018-Feb-17 07:00N 34°13' E 134°40'5 8.3
2018-Feb-17 06:25N 34°09' E 134°38'1 1.1
2018-Feb-17 05:38N 34°09' E 134°36'0 0.0
2018-Feb-17 05:25N 34°09' E 134°36'0 0.0
2018-Feb-17 04:57N 34°09' E 134°36'0 0.0
2018-Feb-17 04:25N 34°09' E 134°36'0 0.0
2018-Feb-17 04:00N 34°09' E 134°36'0 0.0
2018-Feb-17 03:19N 34°09' E 134°36'0 0.0
2018-Feb-17 03:00N 34°09' E 134°36'0 0.0
2018-Feb-17 02:30N 34°09' E 134°36'0 0.0
2018-Feb-17 01:44N 34°09' E 134°36'0 0.0
2018-Feb-17 01:17N 34°09' E 134°36'0 0.0
2018-Feb-17 00:24N 34°09' E 134°36'0 0.0
2018-Feb-16 23:43N 34°09' E 134°36'0 0.0
2018-Feb-16 20:50N 34°09' E 134°36'0 0.0
2018-Feb-16 20:14N 34°09' E 134°36'0 0.0
2018-Feb-16 19:38N 34°09' E 134°36'0 0.0
2018-Feb-16 19:20N 34°09' E 134°36'0 0.0
2018-Feb-16 18:50N 34°09' E 134°36'0 0.0
2018-Feb-16 17:32N 34°09' E 134°36'0 0.0
2018-Feb-16 17:20N 34°09' E 134°36'0 0.0
2018-Feb-16 16:50N 34°09' E 134°36'0 0.0
2018-Feb-16 16:20N 34°09' E 134°36'0 0.0
2018-Feb-16 15:02N 34°09' E 134°36'0 0.0
2018-Feb-16 14:50N 34°09' E 134°36'0 0.0
2018-Feb-16 14:14N 34°09' E 134°36'0 0.0
2018-Feb-16 13:56N 34°09' E 134°36'0 0.0
2018-Feb-16 13:20N 34°09' E 134°36'0 0.0
2018-Feb-16 12:50N 34°09' E 134°36'0 0.0
2018-Feb-16 12:20N 34°09' E 134°36'0 0.0
2018-Feb-16 11:53N 34°09' E 134°36'0 0.0
2018-Feb-16 11:20N 34°09' E 134°36'0 0.0
2018-Feb-16 10:50N 34°09' E 134°36'0 0.0
2018-Feb-16 10:26N 34°09' E 134°36'0 0.0
2018-Feb-16 09:56N 34°09' E 134°36'0 0.0
2018-Feb-16 09:26N 34°09' E 134°36'0 0.0
2018-Feb-16 08:56N 34°09' E 134°36'0 0.0
2018-Feb-16 08:20N 34°09' E 134°36'0 0.0
2018-Feb-16 07:56N 34°09' E 134°36'0 0.0
2018-Feb-16 06:44N 34°09' E 134°36'0 0.0
2018-Feb-16 06:26N 34°09' E 134°36'0 0.0
2018-Feb-16 04:44N 34°09' E 134°36'0 0.0
2018-Feb-16 04:29N 34°09' E 134°36'0 0.0
2018-Feb-16 03:56N 34°09' E 134°36'0 0.0
2018-Feb-16 03:26N 34°09' E 134°36'0 0.0
2018-Feb-16 02:52N 34°09' E 134°36'3 5.4
2018-Feb-16 02:18N 34°10' E 134°40'412.4
2018-Feb-16 01:59N 34°14' E 134°39'611.7
2018-Feb-16 01:30N 34°17' E 134°33'510.6
2018-Feb-16 01:00N 34°19' E 134°27'510.6
2018-Feb-16 00:30N 34°21' E 134°21'510.2
2018-Feb-16 00:00N 34°23' E 134°16'5 9.4
2018-Feb-15 23:30N 34°25' E 134°11'3 0.2
2018-Feb-15 09:52N 34°24' E 134°14'411.4
2018-Feb-15 09:30N 34°25' E 134°19'511.0
2018-Feb-15 09:00N 34°26' E 134°25'611.2
2018-Feb-15 08:30N 34°29' E 134°31'611.1
2018-Feb-15 08:00N 34°30' E 134°38'510.9
2018-Feb-15 07:30N 34°32' E 134°44'510.7
2018-Feb-15 07:00N 34°34' E 134°50'5 9.3
2018-Feb-15 06:30N 34°36' E 134°55'4 8.7
2018-Feb-15 06:00N 34°38' E 135°00'4 7.7
2018-Feb-15 05:30N 34°36' E 135°04'510.5
2018-Feb-15 05:00N 34°36' E 135°11'510.9
2018-Feb-15 04:30N 34°37' E 135°17'510.1
2018-Feb-15 04:00N 34°38' E 135°23'3 5.8
2018-Feb-15 03:30N 34°39' E 135°27'0 0.1
2018-Feb-15 03:00N 34°39' E 135°27'0 0.0
2018-Feb-15 02:28N 34°39' E 135°27'0 0.0
2018-Feb-15 01:58N 34°39' E 135°27'0 0.0
2018-Feb-15 01:25N 34°39' E 135°27'0 0.0
2018-Feb-15 00:55N 34°39' E 135°27'0 0.0
2018-Feb-15 00:28N 34°39' E 135°27'0 0.0
2018-Feb-14 23:58N 34°39' E 135°27'0 0.0
2018-Feb-14 23:28N 34°39' E 135°27'0 0.0
2018-Feb-14 22:58N 34°39' E 135°27'0 0.0
2018-Feb-14 22:28N 34°39' E 135°27'0 0.0
2018-Feb-14 21:58N 34°39' E 135°27'0 0.0
2018-Feb-14 21:28N 34°39' E 135°27'0 0.0
2018-Feb-14 20:58N 34°39' E 135°27'0 0.0
2018-Feb-14 20:28N 34°39' E 135°27'0 0.0
2018-Feb-14 19:58N 34°39' E 135°27'0 0.0
2018-Feb-14 19:28N 34°39' E 135°27'0 0.0
2018-Feb-14 18:58N 34°39' E 135°27'0 0.0
2018-Feb-14 18:28N 34°39' E 135°27'0 0.0
2018-Feb-14 17:58N 34°39' E 135°27'0 0.0
2018-Feb-14 17:28N 34°39' E 135°27'0 0.0
2018-Feb-14 16:58N 34°39' E 135°27'0 0.0
2018-Feb-14 16:28N 34°39' E 135°27'0 0.0
2018-Feb-14 15:55N 34°39' E 135°27'0 0.0
2018-Feb-14 15:25N 34°39' E 135°27'0 0.0
2018-Feb-14 14:58N 34°39' E 135°27'0 0.0
2018-Feb-14 14:28N 34°39' E 135°27'0 0.0
2018-Feb-14 13:58N 34°39' E 135°27'0 0.0
2018-Feb-14 13:28N 34°39' E 135°27'0 0.0
2018-Feb-14 12:58N 34°39' E 135°27'0 0.0
2018-Feb-14 12:28N 34°39' E 135°27'0 0.0
2018-Feb-14 11:55N 34°39' E 135°27'0 0.0
2018-Feb-14 11:28N 34°39' E 135°27'0 0.0
2018-Feb-14 10:58N 34°39' E 135°27'0 0.0
2018-Feb-14 10:28N 34°39' E 135°27'0 0.0
2018-Feb-14 09:58N 34°39' E 135°27'0 0.0
2018-Feb-14 09:28N 34°39' E 135°27'0 0.0
2018-Feb-14 08:58N 34°39' E 135°27'0 0.0
2018-Feb-14 08:28N 34°39' E 135°27'0 0.0
2018-Feb-14 07:58N 34°39' E 135°27'0 0.0
2018-Feb-14 07:28N 34°39' E 135°27'0 0.0
2018-Feb-14 06:58N 34°39' E 135°27'0 0.0
2018-Feb-14 06:28N 34°39' E 135°27'0 0.0
2018-Feb-14 05:58N 34°39' E 135°27'0 0.0
2018-Feb-14 05:28N 34°39' E 135°27'0 0.0
2018-Feb-14 04:58N 34°39' E 135°27'0 0.0
2018-Feb-14 04:28N 34°39' E 135°27'0 0.0
2018-Feb-14 03:58N 34°39' E 135°27'0 0.3
2018-Feb-14 03:30N 34°39' E 135°26'3 5.0
2018-Feb-14 03:00N 34°38' E 135°23'4 7.4
2018-Feb-14 02:30N 34°37' E 135°19'5 9.9
2018-Feb-14 02:00N 34°42' E 135°17'0 0.8
2018-Feb-14 01:30N 34°42' E 135°17'0 0.0
2018-Feb-14 01:00N 34°42' E 135°17'0 0.0
2018-Feb-14 00:30N 34°42' E 135°17'0 0.0
2018-Feb-14 00:00N 34°42' E 135°17'0 0.0
2018-Feb-13 23:30N 34°42' E 135°17'0 0.0
2018-Feb-13 23:00N 34°42' E 135°17'3 5.7
2018-Feb-13 22:30N 34°40' E 135°19'1 2.3
2018-Feb-13 22:00N 34°39' E 135°20'0 0.0
2018-Feb-13 21:30N 34°39' E 135°20'0 0.1
2018-Feb-13 21:00N 34°39' E 135°20'0 0.0
2018-Feb-13 20:30N 34°39' E 135°20'0 0.1
2018-Feb-13 20:00N 34°39' E 135°20'0 0.2
2018-Feb-13 19:30N 34°39' E 135°20'0 0.1
2018-Feb-13 19:00N 34°39' E 135°20'0 0.1
2018-Feb-13 18:30N 34°39' E 135°20'0 0.0
2018-Feb-13 18:00N 34°39' E 135°20'0 0.0
2018-Feb-13 17:30N 34°39' E 135°20'0 0.0
2018-Feb-13 17:00N 34°39' E 135°20'0 0.0
2018-Feb-13 16:30N 34°39' E 135°20'0 0.1
2018-Feb-13 16:00N 34°39' E 135°20'0 0.0
2018-Feb-13 15:30N 34°39' E 135°20'0 0.0
2018-Feb-13 15:00N 34°39' E 135°20'0 0.0
2018-Feb-13 14:30N 34°39' E 135°20'0 0.0
2018-Feb-13 14:00N 34°39' E 135°20'0 0.1
2018-Feb-13 13:30N 34°39' E 135°20'0 0.0
2018-Feb-13 13:00N 34°39' E 135°20'0 0.0
2018-Feb-13 12:30N 34°39' E 135°20'0 0.0
2018-Feb-13 12:00N 34°39' E 135°20'0 0.0
2018-Feb-13 11:30N 34°39' E 135°20'0 0.0
2018-Feb-13 10:57N 34°39' E 135°20'0 0.0
2018-Feb-13 10:30N 34°39' E 135°20'0 0.0
2018-Feb-13 10:00N 34°39' E 135°20'0 0.0
2018-Feb-13 09:30N 34°39' E 135°20'0 0.0
2018-Feb-13 09:00N 34°39' E 135°20'0 0.0
2018-Feb-13 08:30N 34°39' E 135°20'0 0.0
2018-Feb-13 08:00N 34°39' E 135°20'0 0.0
2018-Feb-13 07:30N 34°39' E 135°20'0 0.0
2018-Feb-13 07:00N 34°39' E 135°20'0 0.0
2018-Feb-13 06:30N 34°39' E 135°20'2 3.3
2018-Feb-13 06:00N 34°38' E 135°19'510.8
2018-Feb-13 05:31N 34°35' E 135°13'611.5
2018-Feb-13 04:59N 34°35' E 135°06'713.2
2018-Feb-13 04:29N 34°37' E 134°58'613.1
2018-Feb-13 04:00N 34°34' E 134°51'611.6
2018-Feb-13 03:31N 34°32' E 134°45'611.3
2018-Feb-13 03:00N 34°29' E 134°39'611.2
2018-Feb-13 02:30N 34°27' E 134°32'611.1
2018-Feb-13 02:00N 34°25' E 134°26'8310.1
2018-Feb-12 17:49N 34°04' E 132°49'410.9
2018-Feb-12 17:28N 34°01' E 132°46'510.5
2018-Feb-12 17:00N 33°57' E 132°43'5 9.8
2018-Feb-12 16:29N 33°54' E 132°38'1210.4
2018-Feb-12 15:17N 33°50' E 132°24'410.4
2018-Feb-12 14:57N 33°50' E 132°19'910.6
2018-Feb-12 14:04N 33°48' E 132°08'210.9
2018-Feb-12 13:55N 33°47' E 132°07'410.5
2018-Feb-12 13:30N 33°46' E 132°02'611.5
2018-Feb-12 12:59N 33°51' E 131°57'511.5
2018-Feb-12 12:30N 33°53' E 131°51'711.4
2018-Feb-12 11:54N 33°57' E 131°45'410.2
2018-Feb-12 11:28N 34°02' E 131°46'2 0.3
2018-Feb-12 06:05N 34°03' E 131°47'0 0.0
2018-Feb-12 05:53N 34°03' E 131°47'0 0.0
2018-Feb-12 03:23N 34°03' E 131°47'0 0.0
2018-Feb-12 01:25N 34°03' E 131°47'1 1.8
2018-Feb-12 01:00N 34°02' E 131°47'0 0.0
2018-Feb-12 00:30N 34°02' E 131°47'2 3.9
2018-Feb-12 00:00N 34°01' E 131°46'4 8.3
2018-Feb-11 23:30N 33°57' E 131°48'  
Track history (hours):
 
Tides and Currents Weather Stations Pressure Air Temp Water Temp Dewpoint Dewpoint Depression Visibility Wind Speed Wind Dir Waves Ship Positions

Tokuyama21century

Last reported at 2018-Feb-21 18:58 UTC. Time now 2018-Feb-21 19:15 UTC.
Position N 34°39' E 135°27'.

Length 75 m; draft 6 m.

Type: Cargo ship. MMSI: 431400048.

Date/timePositionNaut miles runAvg speedWind from/ knotsBaromVisibWave heightAir tempDewpointWater temp
2018-Feb-21 18:58N 34°39' E 135°27'0 0.0
2018-Feb-21 18:28N 34°39' E 135°27'0 0.0
2018-Feb-21 17:58N 34°39' E 135°27'0 0.0
2018-Feb-21 17:28N 34°39' E 135°27'0 0.0
2018-Feb-21 16:58N 34°39' E 135°27'0 0.0
2018-Feb-21 16:28N 34°39' E 135°27'0 0.0
2018-Feb-21 15:58N 34°39' E 135°27'0 0.0
2018-Feb-21 15:28N 34°39' E 135°27'0 0.0
2018-Feb-21 14:58N 34°39' E 135°27'0 0.0
2018-Feb-21 14:28N 34°39' E 135°27'0 0.0
2018-Feb-21 13:58N 34°39' E 135°27'0 0.0
2018-Feb-21 13:28N 34°39' E 135°27'0 0.0
2018-Feb-21 12:58N 34°39' E 135°27'0 0.0
2018-Feb-21 12:28N 34°39' E 135°27'0 0.0
2018-Feb-21 11:58N 34°39' E 135°27'0 0.0
2018-Feb-21 11:28N 34°39' E 135°27'0 0.0
2018-Feb-21 10:58N 34°39' E 135°27'0 0.0
2018-Feb-21 10:28N 34°39' E 135°27'0 0.0
2018-Feb-21 09:58N 34°39' E 135°27'0 0.0
2018-Feb-21 09:28N 34°39' E 135°27'0 0.0
2018-Feb-21 08:59N 34°39' E 135°27'1 2.9
2018-Feb-21 08:30N 34°39' E 135°25'5 9.9
2018-Feb-21 08:00N 34°36' E 135°20'510.9
2018-Feb-21 07:31N 34°35' E 135°13'611.0
2018-Feb-21 07:00N 34°34' E 135°07'611.8
2018-Feb-21 06:30N 34°37' E 135°00'611.9
2018-Feb-21 06:00N 34°35' E 134°54'510.4
2018-Feb-21 05:30N 34°32' E 134°48'510.2
2018-Feb-21 05:00N 34°30' E 134°43'510.3
2018-Feb-21 04:30N 34°28' E 134°37'510.3
2018-Feb-21 04:00N 34°27' E 134°31'510.3
2018-Feb-21 03:30N 34°25' E 134°25'18 1.0
2018-Feb-20 09:17N 34°27' E 134°03'410.6
2018-Feb-20 08:53N 34°26' E 134°08'410.2
2018-Feb-20 08:28N 34°24' E 134°13'510.1
2018-Feb-20 08:00N 34°25' E 134°19'510.8
2018-Feb-20 07:30N 34°26' E 134°25'611.1
2018-Feb-20 07:00N 34°28' E 134°31'611.2
2018-Feb-20 06:30N 34°31' E 134°38'611.1
2018-Feb-20 06:00N 34°33' E 134°44'611.7
2018-Feb-20 05:30N 34°35' E 134°51'611.7
2018-Feb-20 05:00N 34°37' E 134°57'510.4
2018-Feb-20 04:30N 34°36' E 135°03'611.4
2018-Feb-20 04:00N 34°37' E 135°10'611.4
2018-Feb-20 03:30N 34°38' E 135°17'510.9
2018-Feb-20 03:00N 34°38' E 135°24'2 4.8
2018-Feb-20 02:30N 34°39' E 135°27'0 0.0
2018-Feb-20 02:00N 34°39' E 135°27'0 0.0
2018-Feb-20 01:30N 34°39' E 135°27'0 0.0
2018-Feb-20 01:00N 34°39' E 135°27'0 0.0
2018-Feb-20 00:30N 34°39' E 135°27'0 0.0
2018-Feb-20 00:00N 34°39' E 135°27'0 0.0
2018-Feb-19 23:30N 34°39' E 135°27'0 0.0
2018-Feb-19 23:00N 34°39' E 135°27'0 0.0
2018-Feb-19 22:28N 34°39' E 135°27'0 0.0
2018-Feb-19 21:58N 34°39' E 135°27'0 0.0
2018-Feb-19 21:25N 34°39' E 135°27'0 0.0
2018-Feb-19 20:58N 34°39' E 135°27'0 0.0
2018-Feb-19 20:28N 34°39' E 135°27'0 0.0
2018-Feb-19 19:58N 34°39' E 135°27'0 0.0
2018-Feb-19 19:28N 34°39' E 135°27'0 0.0
2018-Feb-19 18:58N 34°39' E 135°27'0 0.0
2018-Feb-19 18:28N 34°39' E 135°27'0 0.0
2018-Feb-19 17:58N 34°39' E 135°27'0 0.0
2018-Feb-19 17:28N 34°39' E 135°27'0 0.0
2018-Feb-19 16:58N 34°39' E 135°27'0 0.0
2018-Feb-19 16:28N 34°39' E 135°27'0 0.0
2018-Feb-19 15:58N 34°39' E 135°27'0 0.0
2018-Feb-19 15:28N 34°39' E 135°27'0 0.0
2018-Feb-19 14:58N 34°39' E 135°27'0 0.0
2018-Feb-19 14:28N 34°39' E 135°27'0 0.0
2018-Feb-19 13:58N 34°39' E 135°27'0 0.0
2018-Feb-19 13:28N 34°39' E 135°27'0 0.0
2018-Feb-19 12:58N 34°39' E 135°27'0 0.0
2018-Feb-19 12:28N 34°39' E 135°27'0 0.0
2018-Feb-19 11:58N 34°39' E 135°27'0 0.0
2018-Feb-19 11:28N 34°39' E 135°27'0 0.0
2018-Feb-19 10:58N 34°39' E 135°27'0 0.0
2018-Feb-19 10:28N 34°39' E 135°27'0 0.0
2018-Feb-19 09:58N 34°39' E 135°27'0 0.0
2018-Feb-19 09:28N 34°39' E 135°27'0 0.0
2018-Feb-19 08:58N 34°39' E 135°27'0 0.0
2018-Feb-19 08:25N 34°39' E 135°27'0 0.0
2018-Feb-19 07:58N 34°39' E 135°27'0 0.0
2018-Feb-19 07:28N 34°39' E 135°27'0 0.0
2018-Feb-19 06:58N 34°39' E 135°27'0 0.0
2018-Feb-19 06:28N 34°39' E 135°27'0 0.0
2018-Feb-19 05:58N 34°39' E 135°27'0 0.0
2018-Feb-19 05:28N 34°39' E 135°27'0 0.0
2018-Feb-19 04:58N 34°39' E 135°27'0 0.0
2018-Feb-19 04:28N 34°39' E 135°27'3 6.0
2018-Feb-19 04:00N 34°38' E 135°23'4 7.5
2018-Feb-19 03:28N 34°36' E 135°19'0 0.0
2018-Feb-19 02:58N 34°36' E 135°19'0 0.0
2018-Feb-19 02:28N 34°36' E 135°19'3 5.9
2018-Feb-19 02:00N 34°34' E 135°20'510.6
2018-Feb-19 01:30N 34°28' E 135°22'0 0.2
2018-Feb-19 01:00N 34°28' E 135°22'0 0.0
2018-Feb-19 00:30N 34°28' E 135°22'0 0.0
2018-Feb-19 00:01N 34°28' E 135°22'0 0.0
2018-Feb-18 23:31N 34°28' E 135°22'0 0.0
2018-Feb-18 22:55N 34°28' E 135°22'0 0.0
2018-Feb-18 22:31N 34°28' E 135°22'0 0.0
2018-Feb-18 22:01N 34°28' E 135°22'0 0.0
2018-Feb-18 21:28N 34°28' E 135°22'0 0.0
2018-Feb-18 20:58N 34°28' E 135°22'0 0.0
2018-Feb-18 20:31N 34°28' E 135°22'0 0.0
2018-Feb-18 20:00N 34°28' E 135°22'0 0.0
2018-Feb-18 19:31N 34°28' E 135°22'0 0.0
2018-Feb-18 19:01N 34°28' E 135°22'0 0.0
2018-Feb-18 18:31N 34°28' E 135°22'0 0.0
2018-Feb-18 18:01N 34°28' E 135°22'0 0.0
2018-Feb-18 17:27N 34°28' E 135°22'0 0.0
2018-Feb-18 17:01N 34°28' E 135°22'0 0.0
2018-Feb-18 16:30N 34°28' E 135°22'0 0.0
2018-Feb-18 16:01N 34°28' E 135°22'0 0.0
2018-Feb-18 15:31N 34°28' E 135°22'0 0.0
2018-Feb-18 15:01N 34°28' E 135°22'0 0.0
2018-Feb-18 14:31N 34°28' E 135°22'0 0.0
2018-Feb-18 14:01N 34°28' E 135°22'0 0.0
2018-Feb-18 13:31N 34°28' E 135°22'0 0.0
2018-Feb-18 13:01N 34°28' E 135°22'0 0.0
2018-Feb-18 12:30N 34°28' E 135°22'0 0.0
2018-Feb-18 12:00N 34°28' E 135°22'0 0.0
2018-Feb-18 11:31N 34°28' E 135°22'0 0.0
2018-Feb-18 11:01N 34°28' E 135°22'0 0.0
2018-Feb-18 10:31N 34°28' E 135°22'0 0.0
2018-Feb-18 10:00N 34°28' E 135°22'0 0.0
2018-Feb-18 09:31N 34°28' E 135°22'0 0.0
2018-Feb-18 09:00N 34°28' E 135°22'0 0.0
2018-Feb-18 08:31N 34°28' E 135°22'0 0.0
2018-Feb-18 08:00N 34°28' E 135°22'0 0.0
2018-Feb-18 07:30N 34°28' E 135°22'0 0.0
2018-Feb-18 07:01N 34°28' E 135°22'0 0.0
2018-Feb-18 06:31N 34°28' E 135°22'0 0.0
2018-Feb-18 05:57N 34°28' E 135°22'0 0.0
2018-Feb-18 05:30N 34°28' E 135°22'0 0.0
2018-Feb-18 05:00N 34°28' E 135°22'0 0.0
2018-Feb-18 04:30N 34°28' E 135°22'2 3.8
2018-Feb-18 04:00N 34°30' E 135°21'510.4
2018-Feb-18 03:30N 34°31' E 135°15'510.8
2018-Feb-18 03:01N 34°33' E 135°08'510.5
2018-Feb-18 02:30N 34°36' E 135°03'4 8.8
2018-Feb-18 02:00N 34°36' E 134°58'5 9.0
2018-Feb-18 01:30N 34°34' E 134°53'4 7.8
2018-Feb-18 01:00N 34°33' E 134°48'5 9.1
2018-Feb-18 00:30N 34°31' E 134°43'5 9.6
2018-Feb-18 00:00N 34°30' E 134°38'510.2
2018-Feb-17 23:30N 34°28' E 134°32'510.3
2018-Feb-17 23:00N 34°26' E 134°26'6 0.5
2018-Feb-17 08:57N 34°22' E 134°20'510.5
2018-Feb-17 08:30N 34°20' E 134°25'510.7
2018-Feb-17 08:00N 34°18' E 134°31'5 9.9
2018-Feb-17 07:30N 34°16' E 134°37'4 8.2
2018-Feb-17 07:00N 34°13' E 134°40'5 8.3
2018-Feb-17 06:25N 34°09' E 134°38'1 1.1
2018-Feb-17 05:38N 34°09' E 134°36'0 0.0
2018-Feb-17 05:25N 34°09' E 134°36'0 0.0
2018-Feb-17 04:57N 34°09' E 134°36'0 0.0
2018-Feb-17 04:25N 34°09' E 134°36'0 0.0
2018-Feb-17 04:00N 34°09' E 134°36'0 0.0
2018-Feb-17 03:19N 34°09' E 134°36'0 0.0
2018-Feb-17 03:00N 34°09' E 134°36'0 0.0
2018-Feb-17 02:30N 34°09' E 134°36'0 0.0
2018-Feb-17 01:44N 34°09' E 134°36'0 0.0
2018-Feb-17 01:17N 34°09' E 134°36'0 0.0
2018-Feb-17 00:24N 34°09' E 134°36'0 0.0
2018-Feb-16 23:43N 34°09' E 134°36'0 0.0
2018-Feb-16 20:50N 34°09' E 134°36'0 0.0
2018-Feb-16 20:14N 34°09' E 134°36'0 0.0
2018-Feb-16 19:38N 34°09' E 134°36'0 0.0
2018-Feb-16 19:20N 34°09' E 134°36'0 0.0
2018-Feb-16 18:50N 34°09' E 134°36'0 0.0
2018-Feb-16 17:32N 34°09' E 134°36'0 0.0
2018-Feb-16 17:20N 34°09' E 134°36'0 0.0
2018-Feb-16 16:50N 34°09' E 134°36'0 0.0
2018-Feb-16 16:20N 34°09' E 134°36'0 0.0
2018-Feb-16 15:02N 34°09' E 134°36'0 0.0
2018-Feb-16 14:50N 34°09' E 134°36'0 0.0
2018-Feb-16 14:14N 34°09' E 134°36'0 0.0
2018-Feb-16 13:56N 34°09' E 134°36'0 0.0
2018-Feb-16 13:20N 34°09' E 134°36'0 0.0
2018-Feb-16 12:50N 34°09' E 134°36'0 0.0
2018-Feb-16 12:20N 34°09' E 134°36'0 0.0
2018-Feb-16 11:53N 34°09' E 134°36'0 0.0
2018-Feb-16 11:20N 34°09' E 134°36'0 0.0
2018-Feb-16 10:50N 34°09' E 134°36'0 0.0
2018-Feb-16 10:26N 34°09' E 134°36'0 0.0
2018-Feb-16 09:56N 34°09' E 134°36'0 0.0
2018-Feb-16 09:26N 34°09' E 134°36'0 0.0
2018-Feb-16 08:56N 34°09' E 134°36'0 0.0
2018-Feb-16 08:20N 34°09' E 134°36'0 0.0
2018-Feb-16 07:56N 34°09' E 134°36'0 0.0
2018-Feb-16 06:44N 34°09' E 134°36'0 0.0
2018-Feb-16 06:26N 34°09' E 134°36'0 0.0
2018-Feb-16 04:44N 34°09' E 134°36'0 0.0
2018-Feb-16 04:29N 34°09' E 134°36'0 0.0
2018-Feb-16 03:56N 34°09' E 134°36'0 0.0
2018-Feb-16 03:26N 34°09' E 134°36'0 0.0
2018-Feb-16 02:52N 34°09' E 134°36'3 5.4
2018-Feb-16 02:18N 34°10' E 134°40'412.4
2018-Feb-16 01:59N 34°14' E 134°39'611.7
2018-Feb-16 01:30N 34°17' E 134°33'510.6
2018-Feb-16 01:00N 34°19' E 134°27'510.6
2018-Feb-16 00:30N 34°21' E 134°21'510.2
2018-Feb-16 00:00N 34°23' E 134°16'5 9.4
2018-Feb-15 23:30N 34°25' E 134°11'3 0.2
2018-Feb-15 09:52N 34°24' E 134°14'411.4
2018-Feb-15 09:30N 34°25' E 134°19'511.0
2018-Feb-15 09:00N 34°26' E 134°25'611.2
2018-Feb-15 08:30N 34°29' E 134°31'611.1
2018-Feb-15 08:00N 34°30' E 134°38'510.9
2018-Feb-15 07:30N 34°32' E 134°44'510.7
2018-Feb-15 07:00N 34°34' E 134°50'5 9.3
2018-Feb-15 06:30N 34°36' E 134°55'4 8.7
2018-Feb-15 06:00N 34°38' E 135°00'4 7.7
2018-Feb-15 05:30N 34°36' E 135°04'510.5
2018-Feb-15 05:00N 34°36' E 135°11'510.9
2018-Feb-15 04:30N 34°37' E 135°17'510.1
2018-Feb-15 04:00N 34°38' E 135°23'3 5.8
2018-Feb-15 03:30N 34°39' E 135°27'0 0.1
2018-Feb-15 03:00N 34°39' E 135°27'0 0.0
2018-Feb-15 02:28N 34°39' E 135°27'0 0.0
2018-Feb-15 01:58N 34°39' E 135°27'0 0.0
2018-Feb-15 01:25N 34°39' E 135°27'0 0.0
2018-Feb-15 00:55N 34°39' E 135°27'0 0.0
2018-Feb-15 00:28N 34°39' E 135°27'0 0.0
2018-Feb-14 23:58N 34°39' E 135°27'0 0.0
2018-Feb-14 23:28N 34°39' E 135°27'0 0.0
2018-Feb-14 22:58N 34°39' E 135°27'0 0.0
2018-Feb-14 22:28N 34°39' E 135°27'0 0.0
2018-Feb-14 21:58N 34°39' E 135°27'0 0.0
2018-Feb-14 21:28N 34°39' E 135°27'0 0.0
2018-Feb-14 20:58N 34°39' E 135°27'0 0.0
2018-Feb-14 20:28N 34°39' E 135°27'0 0.0
2018-Feb-14 19:58N 34°39' E 135°27'0 0.0
2018-Feb-14 19:28N 34°39' E 135°27'0 0.0
2018-Feb-14 18:58N 34°39' E 135°27'0 0.0
2018-Feb-14 18:28N 34°39' E 135°27'0 0.0
2018-Feb-14 17:58N 34°39' E 135°27'0 0.0
2018-Feb-14 17:28N 34°39' E 135°27'0 0.0
2018-Feb-14 16:58N 34°39' E 135°27'0 0.0
2018-Feb-14 16:28N 34°39' E 135°27'0 0.0
2018-Feb-14 15:55N 34°39' E 135°27'0 0.0
2018-Feb-14 15:25N 34°39' E 135°27'0 0.0
2018-Feb-14 14:58N 34°39' E 135°27'0 0.0
2018-Feb-14 14:28N 34°39' E 135°27'0 0.0
2018-Feb-14 13:58N 34°39' E 135°27'0 0.0
2018-Feb-14 13:28N 34°39' E 135°27'0 0.0
2018-Feb-14 12:58N 34°39' E 135°27'0 0.0
2018-Feb-14 12:28N 34°39' E 135°27'0 0.0
2018-Feb-14 11:55N 34°39' E 135°27'0 0.0
2018-Feb-14 11:28N 34°39' E 135°27'0 0.0
2018-Feb-14 10:58N 34°39' E 135°27'0 0.0
2018-Feb-14 10:28N 34°39' E 135°27'0 0.0
2018-Feb-14 09:58N 34°39' E 135°27'0 0.0
2018-Feb-14 09:28N 34°39' E 135°27'0 0.0
2018-Feb-14 08:58N 34°39' E 135°27'0 0.0
2018-Feb-14 08:28N 34°39' E 135°27'0 0.0
2018-Feb-14 07:58N 34°39' E 135°27'0 0.0
2018-Feb-14 07:28N 34°39' E 135°27'0 0.0
2018-Feb-14 06:58N 34°39' E 135°27'0 0.0
2018-Feb-14 06:28N 34°39' E 135°27'0 0.0
2018-Feb-14 05:58N 34°39' E 135°27'0 0.0
2018-Feb-14 05:28N 34°39' E 135°27'0 0.0
2018-Feb-14 04:58N 34°39' E 135°27'0 0.0
2018-Feb-14 04:28N 34°39' E 135°27'0 0.0
2018-Feb-14 03:58N 34°39' E 135°27'0 0.3
2018-Feb-14 03:30N 34°39' E 135°26'3 5.0
2018-Feb-14 03:00N 34°38' E 135°23'4 7.4
2018-Feb-14 02:30N 34°37' E 135°19'5 9.9
2018-Feb-14 02:00N 34°42' E 135°17'0 0.8
2018-Feb-14 01:30N 34°42' E 135°17'0 0.0
2018-Feb-14 01:00N 34°42' E 135°17'0 0.0
2018-Feb-14 00:30N 34°42' E 135°17'0 0.0
2018-Feb-14 00:00N 34°42' E 135°17'0 0.0
2018-Feb-13 23:30N 34°42' E 135°17'0 0.0
2018-Feb-13 23:00N 34°42' E 135°17'3 5.7
2018-Feb-13 22:30N 34°40' E 135°19'1 2.3
2018-Feb-13 22:00N 34°39' E 135°20'0 0.0
2018-Feb-13 21:30N 34°39' E 135°20'0 0.1
2018-Feb-13 21:00N 34°39' E 135°20'0 0.0
2018-Feb-13 20:30N 34°39' E 135°20'0 0.1
2018-Feb-13 20:00N 34°39' E 135°20'0 0.2
2018-Feb-13 19:30N 34°39' E 135°20'0 0.1
2018-Feb-13 19:00N 34°39' E 135°20'0 0.1
2018-Feb-13 18:30N 34°39' E 135°20'0 0.0
2018-Feb-13 18:00N 34°39' E 135°20'0 0.0
2018-Feb-13 17:30N 34°39' E 135°20'0 0.0
2018-Feb-13 17:00N 34°39' E 135°20'0 0.0
2018-Feb-13 16:30N 34°39' E 135°20'0 0.1
2018-Feb-13 16:00N 34°39' E 135°20'0 0.0
2018-Feb-13 15:30N 34°39' E 135°20'0 0.0
2018-Feb-13 15:00N 34°39' E 135°20'0 0.0
2018-Feb-13 14:30N 34°39' E 135°20'0 0.0
2018-Feb-13 14:00N 34°39' E 135°20'0 0.1
2018-Feb-13 13:30N 34°39' E 135°20'0 0.0
2018-Feb-13 13:00N 34°39' E 135°20'0 0.0
2018-Feb-13 12:30N 34°39' E 135°20'0 0.0
2018-Feb-13 12:00N 34°39' E 135°20'0 0.0
2018-Feb-13 11:30N 34°39' E 135°20'0 0.0
2018-Feb-13 10:57N 34°39' E 135°20'0 0.0
2018-Feb-13 10:30N 34°39' E 135°20'0 0.0
2018-Feb-13 10:00N 34°39' E 135°20'0 0.0
2018-Feb-13 09:30N 34°39' E 135°20'0 0.0
2018-Feb-13 09:00N 34°39' E 135°20'0 0.0
2018-Feb-13 08:30N 34°39' E 135°20'0 0.0
2018-Feb-13 08:00N 34°39' E 135°20'0 0.0
2018-Feb-13 07:30N 34°39' E 135°20'0 0.0
2018-Feb-13 07:00N 34°39' E 135°20'0 0.0
2018-Feb-13 06:30N 34°39' E 135°20'2 3.3
2018-Feb-13 06:00N 34°38' E 135°19'510.8
2018-Feb-13 05:31N 34°35' E 135°13'611.5
2018-Feb-13 04:59N 34°35' E 135°06'713.2
2018-Feb-13 04:29N 34°37' E 134°58'613.1
2018-Feb-13 04:00N 34°34' E 134°51'611.6
2018-Feb-13 03:31N 34°32' E 134°45'611.3
2018-Feb-13 03:00N 34°29' E 134°39'611.2
2018-Feb-13 02:30N 34°27' E 134°32'611.1
2018-Feb-13 02:00N 34°25' E 134°26'8310.1
2018-Feb-12 17:49N 34°04' E 132°49'410.9
2018-Feb-12 17:28N 34°01' E 132°46'510.5
2018-Feb-12 17:00N 33°57' E 132°43'5 9.8
2018-Feb-12 16:29N 33°54' E 132°38'1210.4
2018-Feb-12 15:17N 33°50' E 132°24'410.4
2018-Feb-12 14:57N 33°50' E 132°19'910.6
2018-Feb-12 14:04N 33°48' E 132°08'210.9
2018-Feb-12 13:55N 33°47' E 132°07'410.5
2018-Feb-12 13:30N 33°46' E 132°02'611.5
2018-Feb-12 12:59N 33°51' E 131°57'511.5
2018-Feb-12 12:30N 33°53' E 131°51'711.4
2018-Feb-12 11:54N 33°57' E 131°45'410.2
2018-Feb-12 11:28N 34°02' E 131°46'2 0.3
2018-Feb-12 06:05N 34°03' E 131°47'0 0.0
2018-Feb-12 05:53N 34°03' E 131°47'0 0.0
2018-Feb-12 03:23N 34°03' E 131°47'0 0.0
2018-Feb-12 01:25N 34°03' E 131°47'1 1.8
2018-Feb-12 01:00N 34°02' E 131°47'0 0.0
2018-Feb-12 00:30N 34°02' E 131°47'2 3.9
2018-Feb-12 00:00N 34°01' E 131°46'4 8.3
2018-Feb-11 23:30N 33°57' E 131°48'  

Dump ship's entire track history